Time;durP1;ratioP1;P1;durP2;ratioP2;P2;SDS_P1;SDS_P2;PMS_P1;PMS_P2;Temp;Humidity;BMP_temperature;BMP_pressure;BME280_temperature;BME280_humidity;BME280_pressure;Samples;Min_cycle;Max_cycle;Signal;HPM_P1;HPM_P2
2021/08/29 00:00:11;;;;;;;3.10;1.67;;;13.50;99.90;;;;;;5056641;28;20075;-93
2021/08/29 00:02:37;;;;;;;2.17;1.75;;;13.50;99.90;;;;;;5056143;28;20028;-93
2021/08/29 00:05:04;;;;;;;4.47;1.80;;;13.70;99.90;;;;;;5055790;28;20021;-92
2021/08/29 00:07:30;;;;;;;2.28;1.60;;;13.70;99.90;;;;;;5055768;28;20029;-92
2021/08/29 00:09:56;;;;;;;2.63;1.75;;;13.70;99.90;;;;;;5056026;28;20025;-92
2021/08/29 00:12:22;;;;;;;3.58;1.60;;;13.40;99.90;;;;;;5056615;28;20028;-92
2021/08/29 00:14:48;;;;;;;5.60;1.83;;;13.60;99.90;;;;;;5055700;28;20025;-93
2021/08/29 00:17:13;;;;;;;2.33;1.70;;;13.70;99.90;;;;;;5056759;28;20075;-93
2021/08/29 00:19:39;;;;;;;2.22;1.70;;;13.60;99.90;;;;;;5055620;28;20469;-92
2021/08/29 00:22:05;;;;;;;2.58;1.67;;;13.60;99.90;;;;;;5055582;28;20047;-92
2021/08/29 00:24:31;;;;;;;7.25;1.83;;;13.80;99.90;;;;;;5055717;28;20111;-92
2021/08/29 00:26:57;;;;;;;3.97;1.85;;;13.80;99.90;;;;;;5055401;28;20543;-92
2021/08/29 00:29:22;;;;;;;3.40;1.65;;;13.80;99.90;;;;;;5054841;28;20500;-92
2021/08/29 00:31:48;;;;;;;2.95;1.85;;;13.80;99.90;;;;;;5055363;28;20068;-93
2021/08/29 00:34:14;;;;;;;3.60;1.63;;;13.60;99.90;;;;;;5055300;28;20028;-93
2021/08/29 00:36:39;;;;;;;1.90;1.60;;;13.60;99.90;;;;;;5055094;28;20107;-91
2021/08/29 00:39:05;;;;;;;3.17;1.80;;;13.50;99.90;;;;;;5055164;28;20017;-93
2021/08/29 00:41:32;;;;;;;3.40;1.60;;;13.50;99.90;;;;;;5055944;28;20021;-93
2021/08/29 00:43:58;;;;;;;3.50;1.80;;;13.50;99.90;;;;;;5055210;28;20090;-92
2021/08/29 00:46:24;;;;;;;5.05;2.10;;;13.50;99.90;;;;;;5055161;28;20118;-92
2021/08/29 00:48:54;;;;;;;3.47;2.25;;;13.40;99.90;;;;;;5055154;28;20099;-92
2021/08/29 00:51:20;;;;;;;3.50;2.15;;;13.40;99.90;;;;;;5054900;28;20020;-92
2021/08/29 00:53:50;;;;;;;2.72;1.90;;;13.50;99.90;;;;;;5054935;28;20032;-93
2021/08/29 00:56:18;;;;;;;3.45;1.70;;;13.60;99.90;;;;;;5054793;28;20029;-93
2021/08/29 00:58:43;;;;;;;2.55;1.80;;;13.70;99.90;;;;;;5054909;28;20547;-94
2021/08/29 01:01:19;;;;;;;3.63;1.83;;;13.80;99.90;;;;;;5054723;28;20021;-93
2021/08/29 01:03:47;;;;;;;2.00;1.80;;;13.90;99.90;;;;;;5055971;28;20096;-93
2021/08/29 01:06:53;;;;;;;2.63;1.55;;;13.90;99.90;;;;;;5054749;28;20048;-92
2021/08/29 01:09:20;;;;;;;2.90;1.60;;;14.10;99.90;;;;;;4997962;28;20022;-93
2021/08/29 01:11:51;;;;;;;3.35;1.85;;;14.10;99.90;;;;;;5044851;28;20032;-93
2021/08/29 01:14:23;;;;;;;6.75;2.00;;;13.90;99.90;;;;;;5054604;28;20064;-93
2021/08/29 01:16:52;;;;;;;1.70;1.60;;;13.90;99.90;;;;;;5054559;28;20076;-93
2021/08/29 01:19:18;;;;;;;2.13;1.60;;;13.90;99.90;;;;;;5054305;28;20051;-93
2021/08/29 01:21:47;;;;;;;3.25;1.70;;;13.90;99.90;;;;;;5054661;28;20033;-92
2021/08/29 01:24:16;;;;;;;3.22;1.60;;;13.80;99.90;;;;;;5054403;28;20389;-93
2021/08/29 01:26:59;;;;;;;7.68;2.10;;;13.70;99.90;;;;;;5054505;28;20021;-93
2021/08/29 01:29:28;;;;;;;1.92;1.65;;;13.60;99.90;;;;;;5054300;28;20050;-93
2021/08/29 01:31:55;;;;;;;3.85;1.80;;;13.40;99.90;;;;;;5054526;28;20123;-92
2021/08/29 01:34:21;;;;;;;1.70;1.55;;;13.50;99.90;;;;;;5054295;28;20055;-93
2021/08/29 01:36:54;;;;;;;3.88;2.00;;;13.40;99.90;;;;;;5053989;28;20027;-93
2021/08/29 01:39:21;;;;;;;3.00;1.83;;;13.30;99.90;;;;;;5053929;28;20021;-93
2021/08/29 01:41:50;;;;;;;3.15;2.00;;;13.30;99.90;;;;;;5053429;28;20025;-92
2021/08/29 01:44:18;;;;;;;2.40;1.73;;;13.20;99.90;;;;;;5055467;28;20021;-93
2021/08/29 01:46:44;;;;;;;1.98;1.77;;;13.20;99.90;;;;;;5054335;28;20366;-93
2021/08/29 01:49:12;;;;;;;3.65;1.80;;;13.30;99.90;;;;;;5054265;28;20124;-93
2021/08/29 01:51:39;;;;;;;4.53;2.00;;;13.30;99.90;;;;;;5054605;28;20036;-93
2021/08/29 01:54:04;;;;;;;3.05;2.17;;;13.60;99.90;;;;;;5054114;28;20032;-93
2021/08/29 01:56:30;;;;;;;4.45;2.00;;;13.40;99.90;;;;;;5054291;28;20025;-92
2021/08/29 01:58:56;;;;;;;2.20;1.42;;;13.40;99.90;;;;;;5054445;28;20021;-94
2021/08/29 02:01:22;;;;;;;2.50;1.88;;;13.50;99.90;;;;;;5054660;28;20530;-94
2021/08/29 02:03:48;;;;;;;4.45;1.73;;;13.50;99.90;;;;;;5055744;28;20032;-91
2021/08/29 02:06:43;;;;;;;4.03;1.90;;;13.50;99.90;;;;;;5072255;28;20016;-92
2021/08/29 02:09:10;;;;;;;2.42;2.17;;;13.50;99.90;;;;;;5062637;28;20021;-92
2021/08/29 02:11:51;;;;;;;3.53;2.40;;;13.30;99.90;;;;;;5055043;28;20027;-93
2021/08/29 02:14:29;;;;;;;1.60;1.30;;;13.40;99.90;;;;;;5055203;28;20048;-92
2021/08/29 02:16:56;;;;;;;5.40;1.45;;;13.40;99.90;;;;;;5054004;28;20124;-92
2021/08/29 02:19:33;;;;;;;3.00;1.88;;;13.40;99.90;;;;;;5053463;28;20370;-92
2021/08/29 02:21:59;;;;;;;2.30;1.50;;;13.40;99.90;;;;;;5053581;28;20028;-91
2021/08/29 02:24:27;;;;;;;3.30;1.83;;;13.50;99.90;;;;;;5054181;28;20029;-92
2021/08/29 02:26:53;;;;;;;2.53;1.80;;;13.60;99.90;;;;;;5053853;28;20091;-91
2021/08/29 02:29:19;;;;;;;3.58;1.95;;;13.50;99.90;;;;;;5055009;28;20063;-93
2021/08/29 02:31:48;;;;;;;3.33;1.60;;;13.40;99.90;;;;;;5053682;28;20025;-92
2021/08/29 02:34:14;;;;;;;2.13;1.38;;;13.60;99.90;;;;;;5053974;28;20476;-91
2021/08/29 02:36:41;;;;;;;3.47;1.75;;;13.70;99.90;;;;;;5053340;28;20024;-92
2021/08/29 02:39:08;;;;;;;2.72;1.77;;;13.80;99.90;;;;;;5053472;28;20025;-93
2021/08/29 02:41:36;;;;;;;1.75;1.30;;;13.90;99.90;;;;;;5053584;28;20401;-93
2021/08/29 02:44:04;;;;;;;5.53;1.65;;;13.90;99.90;;;;;;5053611;28;20100;-92
2021/08/29 02:46:30;;;;;;;2.25;1.70;;;14.00;99.90;;;;;;5054207;28;20116;-93
2021/08/29 02:48:56;;;;;;;2.80;1.70;;;14.10;99.90;;;;;;5053247;28;20129;-93
2021/08/29 02:51:25;;;;;;;3.30;1.85;;;14.00;99.90;;;;;;5053852;28;20457;-92
2021/08/29 02:53:51;;;;;;;1.90;1.60;;;13.90;99.90;;;;;;5057494;28;20028;-92
2021/08/29 02:56:19;;;;;;;3.47;2.08;;;13.90;99.90;;;;;;5057509;28;20115;-91
2021/08/29 02:58:45;;;;;;;2.72;1.60;;;13.80;99.90;;;;;;5057554;28;20025;-91
2021/08/29 03:01:11;;;;;;;2.88;1.73;;;13.70;99.90;;;;;;5057454;28;20028;-92
2021/08/29 03:03:37;;;;;;;5.70;1.80;;;13.60;99.90;;;;;;5057021;28;20389;-92
2021/08/29 03:06:04;;;;;;;3.92;1.80;;;13.90;99.90;;;;;;5057418;28;20029;-93
2021/08/29 03:08:30;;;;;;;2.33;1.92;;;14.00;99.90;;;;;;5057355;28;20025;-92
2021/08/29 03:10:56;;;;;;;2.65;1.95;;;13.90;99.90;;;;;;5057518;28;20032;-93
2021/08/29 03:13:23;;;;;;;2.97;1.80;;;13.90;99.90;;;;;;5057187;28;20055;-92
2021/08/29 03:15:49;;;;;;;2.83;1.80;;;13.90;99.90;;;;;;5057184;28;20036;-94
2021/08/29 03:18:16;;;;;;;3.38;1.83;;;13.90;99.90;;;;;;5057157;28;20028;-94
2021/08/29 03:20:42;;;;;;;2.80;1.58;;;13.90;99.90;;;;;;5057959;28;20029;-93
2021/08/29 03:23:08;;;;;;;2.10;1.60;;;13.90;99.90;;;;;;5058291;28;20100;-93
2021/08/29 03:25:34;;;;;;;4.05;1.85;;;13.90;99.90;;;;;;5057224;28;20021;-94
2021/08/29 03:28:00;;;;;;;3.08;1.70;;;13.90;99.90;;;;;;5057158;28;20029;-93
2021/08/29 03:30:26;;;;;;;3.28;2.20;;;14.00;99.90;;;;;;5057801;28;20036;-93
2021/08/29 03:32:52;;;;;;;2.38;1.98;;;13.70;99.90;;;;;;5056939;28;20031;-93
2021/08/29 03:35:19;;;;;;;3.90;2.17;;;13.80;99.90;;;;;;5056960;28;20083;-94
2021/08/29 03:37:45;;;;;;;2.45;1.90;;;13.50;99.90;;;;;;5056854;28;20056;-93
2021/08/29 03:40:12;;;;;;;3.25;2.30;;;13.40;99.90;;;;;;5056587;28;20040;-94
2021/08/29 03:42:39;;;;;;;2.92;2.28;;;13.40;99.90;;;;;;5057167;28;20059;-93
2021/08/29 03:45:06;;;;;;;2.55;2.00;;;13.40;99.90;;;;;;5056825;28;20083;-93
2021/08/29 03:47:34;;;;;;;3.65;2.20;;;13.40;99.90;;;;;;5057157;28;20059;-92
2021/08/29 03:50:00;;;;;;;3.08;2.28;;;13.30;99.90;;;;;;5080041;28;20081;-92
2021/08/29 03:52:26;;;;;;;4.00;2.38;;;13.20;99.90;;;;;;5080185;28;20032;-93
2021/08/29 03:54:52;;;;;;;3.17;2.00;;;13.20;99.90;;;;;;5079732;28;20113;-93
2021/08/29 03:57:18;;;;;;;5.13;2.40;;;13.20;99.90;;;;;;5079772;28;20115;-93
2021/08/29 03:59:44;;;;;;;2.25;1.77;;;13.10;99.90;;;;;;5080181;28;20021;-93
2021/08/29 04:02:10;;;;;;;2.95;1.70;;;13.30;99.90;;;;;;5080043;28;20103;-95
2021/08/29 04:04:36;;;;;;;3.72;1.73;;;13.60;99.90;;;;;;5079068;28;20024;-93
2021/08/29 04:07:04;;;;;;;2.08;1.88;;;13.80;99.90;;;;;;5079523;28;20024;-93
2021/08/29 04:09:31;;;;;;;2.72;2.00;;;13.90;99.90;;;;;;5079653;28;20460;-94
2021/08/29 04:12:01;;;;;;;3.83;2.08;;;14.00;99.90;;;;;;5079560;28;20048;-92
2021/08/29 04:14:27;;;;;;;2.35;2.08;;;13.90;99.90;;;;;;5079507;28;20031;-93
2021/08/29 04:16:59;;;;;;;3.83;1.73;;;13.60;99.90;;;;;;5079628;28;20031;-93
2021/08/29 04:19:26;;;;;;;3.65;2.38;;;13.50;99.90;;;;;;5086016;28;20024;-93
2021/08/29 04:21:55;;;;;;;2.92;2.13;;;13.40;99.90;;;;;;5092345;28;20028;-93
2021/08/29 04:24:21;;;;;;;2.10;1.90;;;13.40;99.90;;;;;;5083519;28;20031;-93
2021/08/29 04:26:48;;;;;;;3.55;2.20;;;13.50;99.90;;;;;;5080269;28;20020;-92
2021/08/29 04:29:13;;;;;;;3.53;2.08;;;13.40;99.90;;;;;;5080788;28;20020;-92
2021/08/29 04:31:43;;;;;;;3.75;2.45;;;13.30;99.90;;;;;;5079730;28;20127;-94
2021/08/29 04:34:10;;;;;;;4.28;2.53;;;13.30;99.90;;;;;;5079820;28;20016;-92
2021/08/29 04:36:37;;;;;;;4.18;2.33;;;13.30;99.90;;;;;;5079053;28;20055;-92
2021/08/29 04:39:05;;;;;;;3.80;2.50;;;13.20;99.90;;;;;;5078947;28;20539;-93
2021/08/29 04:41:32;;;;;;;2.58;2.30;;;13.30;99.90;;;;;;5079152;28;20020;-93
2021/08/29 04:43:58;;;;;;;1.90;1.70;;;13.40;99.90;;;;;;5078836;28;20020;-94
2021/08/29 04:46:24;;;;;;;3.60;2.28;;;13.40;99.90;;;;;;5079044;28;20023;-94
2021/08/29 04:48:50;;;;;;;5.68;2.58;;;13.40;99.90;;;;;;5078645;28;20067;-94
2021/08/29 04:51:15;;;;;;;5.80;2.65;;;13.40;99.90;;;;;;5079040;28;20023;-93
2021/08/29 04:53:41;;;;;;;3.92;2.55;;;13.30;99.90;;;;;;5078984;28;20132;-93
2021/08/29 04:56:07;;;;;;;3.90;2.55;;;13.20;99.90;;;;;;5078574;28;20104;-93
2021/08/29 04:58:33;;;;;;;3.15;2.22;;;13.30;99.90;;;;;;5078469;28;20035;-94
2021/08/29 05:00:58;;;;;;;3.05;2.15;;;13.30;99.90;;;;;;5078192;28;20055;-94
2021/08/29 05:03:24;;;;;;;4.10;1.80;;;13.40;99.90;;;;;;5078297;28;20031;-93
2021/08/29 05:05:50;;;;;;;3.97;1.92;;;13.70;99.90;;;;;;5078406;28;20051;-92
2021/08/29 05:08:16;;;;;;;4.55;2.25;;;13.70;99.90;;;;;;5078236;28;20081;-93
2021/08/29 05:10:41;;;;;;;3.47;2.55;;;13.50;99.90;;;;;;5078133;28;20028;-93
2021/08/29 05:13:07;;;;;;;2.05;1.70;;;13.50;99.90;;;;;;5077791;28;20479;-93
2021/08/29 05:15:33;;;;;;;1.75;1.60;;;13.30;99.90;;;;;;5078067;28;20480;-94
2021/08/29 05:17:59;;;;;;;3.95;1.85;;;13.40;99.90;;;;;;5095804;28;20021;-94
2021/08/29 05:20:25;;;;;;;2.92;1.27;;;13.40;99.90;;;;;;5078730;28;20518;-95
2021/08/29 05:22:51;;;;;;;1.25;1.15;;;13.40;99.90;;;;;;5098070;28;20024;-94
2021/08/29 05:25:17;;;;;;;2.20;1.30;;;13.30;99.90;;;;;;5081427;28;20023;-95
2021/08/29 05:27:43;;;;;;;2.13;1.30;;;13.40;99.90;;;;;;5087546;28;20034;-94
2021/08/29 05:30:10;;;;;;;1.02;0.90;;;13.40;99.90;;;;;;5088232;28;20066;-94
2021/08/29 05:32:36;;;;;;;1.65;1.23;;;13.40;99.90;;;;;;5084773;28;20043;-95
2021/08/29 05:35:02;;;;;;;4.15;1.27;;;13.50;99.90;;;;;;5081602;28;20028;-94
2021/08/29 05:37:29;;;;;;;1.05;0.90;;;13.40;99.90;;;;;;5083899;28;20035;-95
2021/08/29 05:39:55;;;;;;;1.40;1.15;;;13.60;99.90;;;;;;5082026;28;20024;-94
2021/08/29 05:42:21;;;;;;;1.88;1.10;;;13.50;99.90;;;;;;5078466;28;20111;-95
2021/08/29 05:44:47;;;;;;;1.33;1.08;;;13.50;99.90;;;;;;5078775;28;20105;-94
2021/08/29 05:47:13;;;;;;;2.10;1.20;;;13.60;99.90;;;;;;5081402;28;20095;-94
2021/08/29 05:49:38;;;;;;;1.80;1.02;;;13.70;99.90;;;;;;5058906;28;20095;-94
2021/08/29 05:52:05;;;;;;;1.02;0.90;;;13.60;99.90;;;;;;5057528;28;20033;-95
2021/08/29 05:54:31;;;;;;;1.98;1.20;;;13.80;99.90;;;;;;5063595;28;20029;-95
2021/08/29 05:56:56;;;;;;;3.53;1.30;;;13.70;99.90;;;;;;5056918;28;20025;-95
2021/08/29 05:59:22;;;;;;;1.85;1.35;;;13.70;99.90;;;;;;5058371;28;20036;-95
2021/08/29 06:01:48;;;;;;;1.95;1.20;;;13.50;99.90;;;;;;5057287;28;20071;-95
2021/08/29 06:04:14;;;;;;;1.30;0.98;;;13.50;99.90;;;;;;5054639;28;20068;-95
2021/08/29 06:06:39;;;;;;;2.33;1.10;;;13.70;99.90;;;;;;5053884;28;20028;-94
2021/08/29 06:09:05;;;;;;;1.15;0.98;;;13.80;99.90;;;;;;5053500;28;20086;-93
2021/08/29 06:11:32;;;;;;;0.98;0.80;;;13.90;99.90;;;;;;5053504;28;20025;-93
2021/08/29 06:13:58;;;;;;;1.98;1.17;;;13.90;99.90;;;;;;5054377;28;20037;-93
2021/08/29 06:16:24;;;;;;;1.50;0.98;;;13.80;99.90;;;;;;5053507;28;20034;-94
2021/08/29 06:18:51;;;;;;;1.90;1.02;;;13.90;99.90;;;;;;5053070;28;20029;-94
2021/08/29 06:21:17;;;;;;;1.38;1.05;;;13.90;99.90;;;;;;5053546;28;20027;-93
2021/08/29 06:23:42;;;;;;;0.90;0.70;;;13.90;99.90;;;;;;5053531;28;20108;-93
2021/08/29 06:26:08;;;;;;;1.45;0.82;;;14.00;99.90;;;;;;5053900;28;20029;-94
2021/08/29 06:28:34;;;;;;;0.90;0.70;;;14.10;99.90;;;;;;5054506;28;20104;-94
2021/08/29 06:30:59;;;;;;;0.70;0.55;;;13.90;99.90;;;;;;5054956;28;20499;-95
2021/08/29 06:33:25;;;;;;;1.40;0.75;;;14.00;99.90;;;;;;5055727;28;20036;-94
2021/08/29 06:35:51;;;;;;;1.27;0.82;;;14.10;99.90;;;;;;5063769;28;20028;-93
2021/08/29 06:38:17;;;;;;;0.85;0.60;;;14.20;99.90;;;;;;5059402;28;20163;-93
2021/08/29 06:40:42;;;;;;;1.00;0.88;;;14.20;99.90;;;;;;5055087;28;20397;-94
2021/08/29 06:43:08;;;;;;;2.15;0.60;;;14.20;99.90;;;;;;5054592;28;20041;-93
2021/08/29 06:45:34;;;;;;;0.85;0.47;;;14.30;99.90;;;;;;5053746;28;20025;-93
2021/08/29 06:48:00;;;;;;;1.10;0.50;;;14.30;99.90;;;;;;5053156;28;20073;-93
2021/08/29 06:50:25;;;;;;;1.33;0.60;;;14.30;99.90;;;;;;5053478;28;20112;-94
2021/08/29 06:52:51;;;;;;;0.68;0.50;;;14.40;99.90;;;;;;5053182;28;20036;-93
2021/08/29 06:55:17;;;;;;;1.20;0.70;;;14.40;99.90;;;;;;5053739;28;20055;-94
2021/08/29 06:57:42;;;;;;;1.23;0.60;;;14.50;99.90;;;;;;5053955;28;20112;-94
2021/08/29 07:00:09;;;;;;;1.02;0.60;;;14.20;99.90;;;;;;5054172;28;20088;-93
2021/08/29 07:02:34;;;;;;;0.80;0.68;;;14.30;99.90;;;;;;5053501;28;20111;-93
2021/08/29 07:05:00;;;;;;;0.73;0.60;;;14.40;99.90;;;;;;5052933;28;20064;-93
2021/08/29 07:07:26;;;;;;;0.70;0.60;;;14.40;99.90;;;;;;5053235;28;20036;-94
2021/08/29 07:09:51;;;;;;;1.15;0.68;;;14.50;99.90;;;;;;5053466;28;20112;-94
2021/08/29 07:12:51;;;;;;;;;;;;;;;;;;;;;
2021/08/29 07:15:17;;;;;;;0.47;0.40;;;14.40;99.90;;;;;;5052809;28;20135;-94
2021/08/29 07:17:45;;;;;;;1.65;0.60;;;14.30;99.90;;;;;;5053203;28;20048;-92
2021/08/29 07:20:12;;;;;;;0.40;0.40;;;14.40;99.90;;;;;;5053797;28;20021;-93
2021/08/29 07:22:37;;;;;;;0.52;0.40;;;14.40;99.90;;;;;;5052814;28;20053;-93
2021/08/29 07:25:03;;;;;;;0.88;0.52;;;14.50;99.90;;;;;;5053671;28;20112;-93
2021/08/29 07:27:29;;;;;;;0.85;0.50;;;14.50;99.90;;;;;;5052445;28;20443;-93
2021/08/29 07:29:55;;;;;;;0.73;0.60;;;14.50;99.90;;;;;;5052745;28;20115;-92
2021/08/29 07:32:21;;;;;;;0.73;0.52;;;14.50;99.90;;;;;;5053365;28;20020;-93
2021/08/29 07:34:47;;;;;;;0.50;0.40;;;14.50;99.90;;;;;;5053319;28;20056;-92
2021/08/29 07:37:13;;;;;;;0.55;0.32;;;14.70;99.90;;;;;;5053144;28;20077;-92
2021/08/29 07:39:38;;;;;;;0.60;0.35;;;14.70;99.90;;;;;;5055462;28;20021;-93
2021/08/29 07:42:04;;;;;;;3.05;1.05;;;14.70;99.90;;;;;;5056542;28;20381;-94
2021/08/29 07:44:30;;;;;;;3.47;1.35;;;14.80;99.90;;;;;;5056198;28;20021;-93
2021/08/29 07:46:55;;;;;;;3.08;1.67;;;14.90;99.90;;;;;;5056618;28;20021;-93
2021/08/29 07:49:21;;;;;;;2.15;1.40;;;14.90;99.90;;;;;;5056100;28;20080;-93
2021/08/29 07:51:47;;;;;;;1.73;1.40;;;15.00;99.90;;;;;;5056243;28;20064;-93
2021/08/29 07:54:12;;;;;;;0.90;0.70;;;15.00;99.90;;;;;;5056200;28;20074;-92
2021/08/29 07:56:38;;;;;;;0.50;0.40;;;15.00;99.90;;;;;;5056589;28;20029;-93
2021/08/29 07:59:04;;;;;;;0.57;0.50;;;15.00;99.90;;;;;;5056213;28;20051;-92
2021/08/29 08:01:30;;;;;;;0.45;0.32;;;15.00;99.90;;;;;;5055985;28;20071;-93
2021/08/29 08:03:55;;;;;;;0.60;0.50;;;15.10;99.90;;;;;;5055884;28;20082;-92
2021/08/29 08:06:21;;;;;;;0.35;0.35;;;15.20;99.90;;;;;;5061075;28;20120;-96
2021/08/29 08:12:12;;;;;;;1.15;0.40;;;15.30;99.90;;;;;;5072489;28;20024;-95
2021/08/29 08:14:39;;;;;;;1.85;0.57;;;15.30;99.90;;;;;;5071688;28;20550;-96
2021/08/29 08:17:12;;;;;;;0.52;0.50;;;15.30;99.90;;;;;;5070907;28;20501;-96
2021/08/29 08:19:38;;;;;;;0.28;0.28;;;15.30;99.90;;;;;;5071455;28;20025;-96
2021/08/29 08:22:06;;;;;;;1.45;0.70;;;15.20;99.90;;;;;;5070817;28;20070;-95
2021/08/29 08:24:36;;;;;;;1.00;0.80;;;15.10;99.90;;;;;;5114123;22;20053;-94
2021/08/29 08:27:02;;;;;;;1.58;1.00;;;15.00;99.90;;;;;;5060839;28;20020;-94
2021/08/29 08:29:28;;;;;;;3.00;1.08;;;15.00;99.90;;;;;;5061076;28;20013;-95
2021/08/29 08:31:53;;;;;;;1.73;1.00;;;15.00;99.90;;;;;;5061988;28;20544;-94
2021/08/29 08:34:19;;;;;;;1.65;1.05;;;15.00;99.90;;;;;;5064517;28;20032;-89
2021/08/29 08:36:45;;;;;;;1.10;0.80;;;15.10;99.90;;;;;;5060574;28;20025;-90
2021/08/29 08:39:11;;;;;;;1.13;0.90;;;15.20;99.90;;;;;;5057734;28;20079;-90
2021/08/29 08:41:36;;;;;;;1.23;0.95;;;15.20;99.90;;;;;;5059353;28;20017;-92
2021/08/29 08:44:02;;;;;;;0.90;0.80;;;15.20;99.90;;;;;;5056905;28;20120;-93
2021/08/29 08:46:29;;;;;;;2.58;1.55;;;15.00;99.90;;;;;;5056690;28;20088;-93
2021/08/29 08:48:56;;;;;;;3.33;1.83;;;15.00;99.90;;;;;;5062581;28;20096;-90
2021/08/29 08:51:27;;;;;;;1.23;1.02;;;14.90;99.90;;;;;;5069348;28;20060;-89
2021/08/29 08:53:54;;;;;;;1.42;1.33;;;14.90;99.90;;;;;;5061715;28;20029;-92
2021/08/29 08:56:22;;;;;;;1.83;1.02;;;14.90;99.90;;;;;;5057228;28;20025;-92
2021/08/29 08:58:51;;;;;;;1.10;0.90;;;14.90;99.90;;;;;;5056519;28;20029;-93
2021/08/29 09:01:17;;;;;;;1.40;0.90;;;15.00;99.90;;;;;;5055807;28;20044;-93
2021/08/29 09:03:43;;;;;;;1.55;0.82;;;15.10;99.90;;;;;;5055592;28;20025;-92
2021/08/29 09:06:10;;;;;;;2.40;1.48;;;15.20;99.90;;;;;;5055386;28;20025;-92
2021/08/29 09:08:37;;;;;;;2.28;1.30;;;15.20;99.90;;;;;;5054957;28;20021;-90
2021/08/29 09:11:04;;;;;;;1.45;1.08;;;15.10;99.90;;;;;;5054966;28;20033;-91
2021/08/29 09:13:48;;;;;;;1.48;1.38;;;15.40;99.90;;;;;;5055216;28;20104;-92
2021/08/29 09:16:16;;;;;;;2.08;1.40;;;15.40;99.90;;;;;;5055164;28;20039;-91
2021/08/29 09:18:55;;;;;;;2.25;1.88;;;15.60;99.90;;;;;;5055093;28;20044;-91
2021/08/29 09:21:33;;;;;;;2.60;1.30;;;15.60;99.90;;;;;;5054895;28;20500;-92
2021/08/29 09:24:06;;;;;;;1.27;1.17;;;15.70;99.90;;;;;;5055686;28;20074;-92
2021/08/29 09:26:32;;;;;;;2.22;1.42;;;15.90;99.90;;;;;;5054559;28;20064;-91
2021/08/29 09:28:59;;;;;;;1.50;1.27;;;16.00;99.90;;;;;;5054992;28;20029;-91
2021/08/29 09:31:43;;;;;;;2.85;1.63;;;16.00;99.90;;;;;;5055523;28;20036;-92
2021/08/29 09:34:09;;;;;;;1.83;1.60;;;16.10;99.90;;;;;;5055065;28;20028;-92
2021/08/29 09:36:38;;;;;;;2.08;1.50;;;15.90;99.90;;;;;;5056054;28;20033;-92
2021/08/29 09:39:20;;;;;;;1.92;1.50;;;16.10;99.90;;;;;;5054897;28;20389;-92
2021/08/29 09:41:47;;;;;;;4.45;1.90;;;16.00;99.90;;;;;;5054510;28;20025;-91
2021/08/29 09:44:20;;;;;;;3.67;1.55;;;15.90;99.90;;;;;;5060431;28;20048;-92
2021/08/29 09:46:55;;;;;;;2.27;1.57;;;15.90;99.90;;;;;;5054358;28;20021;-91
2021/08/29 09:49:24;;;;;;;1.90;1.70;;;16.00;99.90;;;;;;5055437;28;20074;-92
2021/08/29 09:51:50;;;;;;;3.65;2.03;;;16.10;99.90;;;;;;5055156;28;20024;-92
2021/08/29 09:54:36;;;;;;;2.38;1.83;;;15.90;99.90;;;;;;5054257;28;20116;-91
2021/08/29 09:57:07;;;;;;;2.70;1.65;;;16.00;99.90;;;;;;5054750;28;20025;-91
2021/08/29 09:59:43;;;;;;;3.15;2.40;;;16.00;99.90;;;;;;5054993;28;20029;-90
2021/08/29 10:02:10;;;;;;;2.53;2.17;;;15.90;99.90;;;;;;5054170;28;20040;-92
2021/08/29 10:04:37;;;;;;;2.97;2.50;;;15.80;99.90;;;;;;5055935;28;20024;-91
2021/08/29 10:07:17;;;;;;;3.72;2.47;;;15.70;99.90;;;;;;5038372;28;20508;-91
2021/08/29 10:09:45;;;;;;;3.65;2.95;;;15.50;99.90;;;;;;5061993;28;20025;-92
2021/08/29 10:12:11;;;;;;;3.47;2.30;;;15.50;99.90;;;;;;5038591;28;20025;-91
2021/08/29 10:14:39;;;;;;;5.68;2.25;;;15.50;99.90;;;;;;5054184;28;20017;-92
2021/08/29 10:17:05;;;;;;;2.25;1.85;;;15.60;99.90;;;;;;5055525;28;20115;-92
2021/08/29 10:19:33;;;;;;;3.20;2.83;;;15.50;99.90;;;;;;5053455;28;20025;-92
2021/08/29 10:22:00;;;;;;;3.30;2.70;;;15.50;99.90;;;;;;5053866;28;20052;-93
2021/08/29 10:24:33;;;;;;;3.13;2.72;;;15.50;99.90;;;;;;5053588;28;20025;-91
2021/08/29 10:27:08;;;;;;;2.60;2.40;;;15.50;99.90;;;;;;5053451;28;20048;-91
2021/08/29 10:29:47;;;;;;;5.32;2.90;;;15.50;99.90;;;;;;5053209;28;20473;-91
2021/08/29 10:32:13;;;;;;;7.78;3.33;;;15.40;99.90;;;;;;5058273;28;20086;-92
2021/08/29 10:34:41;;;;;;;6.03;3.72;;;15.30;99.90;;;;;;5060816;28;20116;-90
2021/08/29 10:40:29;;;;;;;5.05;2.60;;;15.20;99.90;;;;;;5054707;28;20027;-90
2021/08/29 10:42:57;;;;;;;3.15;2.65;;;15.20;99.90;;;;;;5053195;28;20017;-92
2021/08/29 10:45:23;;;;;;;2.75;2.40;;;15.20;99.90;;;;;;5052848;28;20059;-92
2021/08/29 10:47:49;;;;;;;3.15;2.80;;;15.30;99.90;;;;;;5053151;28;20056;-91
2021/08/29 10:50:19;;;;;;;2.35;2.15;;;15.30;99.90;;;;;;5053689;28;20029;-93
2021/08/29 10:52:45;;;;;;;2.92;2.65;;;15.30;99.90;;;;;;5053177;28;20484;-90
2021/08/29 10:55:14;;;;;;;3.17;2.28;;;15.30;99.90;;;;;;5053009;28;20028;-92
2021/08/29 10:57:42;;;;;;;2.38;1.88;;;15.40;99.90;;;;;;5053160;28;20025;-92
2021/08/29 11:00:10;;;;;;;5.30;3.72;;;15.30;99.90;;;;;;5053752;28;20048;-91
2021/08/29 11:02:50;;;;;;;6.20;3.10;;;15.20;99.90;;;;;;5055049;28;20492;-92
2021/08/29 11:05:37;;;;;;;3.53;2.05;;;15.20;99.90;;;;;;5062442;28;20029;-92
2021/08/29 11:08:30;;;;;;;3.25;1.88;;;15.20;99.90;;;;;;5041307;28;20041;-92
2021/08/29 11:10:56;;;;;;;2.83;2.05;;;15.10;99.90;;;;;;5053724;28;20477;-91
2021/08/29 11:13:28;;;;;;;2.70;1.80;;;15.20;99.90;;;;;;5055742;28;20036;-92
2021/08/29 11:16:12;;;;;;;3.05;1.58;;;15.30;99.90;;;;;;5057457;28;20025;-92
2021/08/29 11:19:00;;;;;;;2.08;1.88;;;15.40;99.90;;;;;;5057460;28;20078;-92
2021/08/29 11:21:34;;;;;;;2.70;2.00;;;15.50;99.90;;;;;;5058303;28;20029;-91
2021/08/29 11:24:01;;;;;;;1.92;1.45;;;15.50;99.90;;;;;;5042200;28;20482;-92
2021/08/29 11:26:32;;;;;;;1.50;1.33;;;15.30;99.90;;;;;;5041397;28;20144;-91
2021/08/29 11:28:57;;;;;;;2.00;1.80;;;15.30;99.90;;;;;;5057760;28;20370;-92
2021/08/29 11:31:49;;;;;;;1.83;1.63;;;15.30;99.90;;;;;;5057544;28;20085;-91
2021/08/29 11:34:16;;;;;;;1.70;1.60;;;15.30;99.90;;;;;;5057195;28;20031;-91
2021/08/29 11:36:42;;;;;;;2.60;1.90;;;15.30;99.90;;;;;;5057138;28;20102;-91
2021/08/29 11:39:31;;;;;;;1.60;1.50;;;15.40;99.90;;;;;;5057023;28;20025;-91
2021/08/29 11:42:17;;;;;;;2.40;1.40;;;15.50;99.90;;;;;;5056993;28;20021;-86
2021/08/29 11:44:44;;;;;;;1.33;1.10;;;15.50;99.90;;;;;;5055700;28;20029;-86
2021/08/29 11:47:10;;;;;;;1.45;1.25;;;15.50;99.90;;;;;;5055488;28;20021;-86
2021/08/29 11:49:38;;;;;;;1.70;1.58;;;15.60;99.90;;;;;;5055965;28;20028;-86
2021/08/29 11:52:05;;;;;;;2.33;1.27;;;15.60;99.90;;;;;;5055685;28;20028;-86
2021/08/29 11:54:31;;;;;;;1.80;1.50;;;15.60;99.90;;;;;;5055391;28;20070;-86
2021/08/29 11:56:56;;;;;;;2.35;1.58;;;15.70;99.90;;;;;;5055204;28;20116;-86
2021/08/29 11:59:27;;;;;;;1.83;1.60;;;15.70;99.90;;;;;;5055451;28;20048;-86
2021/08/29 12:02:00;;;;;;;1.60;1.40;;;15.70;99.90;;;;;;5055192;28;20060;-86
2021/08/29 12:04:27;;;;;;;1.90;1.67;;;15.70;99.90;;;;;;5055264;28;20058;-86
2021/08/29 12:07:05;;;;;;;1.63;1.40;;;15.80;99.90;;;;;;5055091;28;20024;-86
2021/08/29 12:09:41;;;;;;;1.95;1.60;;;15.90;99.90;;;;;;5055012;28;20029;-85
2021/08/29 12:12:08;;;;;;;1.70;1.60;;;16.00;99.90;;;;;;5056324;28;20119;-86
2021/08/29 12:14:37;;;;;;;1.85;1.67;;;15.90;99.90;;;;;;5055107;28;20021;-86
2021/08/29 12:17:06;;;;;;;2.78;1.40;;;15.80;99.90;;;;;;5054762;28;20056;-85
2021/08/29 12:19:38;;;;;;;1.38;1.27;;;15.80;99.90;;;;;;5055776;28;20036;-85
2021/08/29 12:22:07;;;;;;;2.00;1.80;;;15.70;99.90;;;;;;5056600;28;20029;-85
2021/08/29 12:24:35;;;;;;;4.47;2.33;;;15.70;99.90;;;;;;5052897;28;20024;-86
2021/08/29 12:27:09;;;;;;;1.20;1.10;;;15.70;99.90;;;;;;5018188;28;20037;-84
2021/08/29 12:29:46;;;;;;;1.02;0.70;;;15.70;99.90;;;;;;5018076;28;20031;-85
2021/08/29 12:32:15;;;;;;;1.45;0.95;;;15.80;99.90;;;;;;5035693;28;20053;-86
2021/08/29 12:34:41;;;;;;;1.88;1.00;;;15.70;99.90;;;;;;5035962;28;20025;-85
2021/08/29 12:37:12;;;;;;;1.38;1.20;;;15.70;99.90;;;;;;5017921;28;20438;-86
2021/08/29 12:39:40;;;;;;;4.05;1.55;;;15.70;99.90;;;;;;5018403;28;20053;-85
2021/08/29 12:42:19;;;;;;;4.22;2.15;;;15.60;99.90;;;;;;5019976;28;20080;-85
2021/08/29 12:44:45;;;;;;;2.50;2.03;;;15.60;99.90;;;;;;5018427;28;20071;-85
2021/08/29 12:47:11;;;;;;;4.00;2.25;;;15.60;99.90;;;;;;5018274;28;20025;-85
2021/08/29 12:49:38;;;;;;;2.97;2.67;;;15.60;99.90;;;;;;5018081;28;20021;-85
2021/08/29 12:52:07;;;;;;;2.22;2.03;;;15.50;99.90;;;;;;5018017;28;20481;-85
2021/08/29 12:54:33;;;;;;;3.55;2.63;;;15.50;99.90;;;;;;5018043;28;20022;-86
2021/08/29 12:56:59;;;;;;;5.20;2.60;;;15.40;99.90;;;;;;5017986;28;20026;-83
2021/08/29 12:59:28;;;;;;;5.10;3.00;;;15.40;99.90;;;;;;5017733;28;20017;-83